sensor_id;sensor_type;location;lat;lon;timestamp;temperature;humidity
11744;DHT22;5929;51.906;7.674;2023-08-07T00:02:21;13.70;99.90
11744;DHT22;5929;51.906;7.674;2023-08-07T00:04:49;13.70;99.90
11744;DHT22;5929;51.906;7.674;2023-08-07T00:07:16;13.70;99.90
11744;DHT22;5929;51.906;7.674;2023-08-07T00:09:43;13.60;99.90
11744;DHT22;5929;51.906;7.674;2023-08-07T00:12:10;13.60;99.90
11744;DHT22;5929;51.906;7.674;2023-08-07T00:14:37;13.60;99.90
11744;DHT22;5929;51.906;7.674;2023-08-07T00:17:04;13.60;99.90
11744;DHT22;5929;51.906;7.674;2023-08-07T00:19:31;13.60;99.90
11744;DHT22;5929;51.906;7.674;2023-08-07T00:21:59;13.60;99.90
11744;DHT22;5929;51.906;7.674;2023-08-07T00:24:26;13.60;99.90
11744;DHT22;5929;51.906;7.674;2023-08-07T00:26:53;13.60;99.90
11744;DHT22;5929;51.906;7.674;2023-08-07T00:29:19;13.60;99.90
11744;DHT22;5929;51.906;7.674;2023-08-07T00:31:46;13.70;99.90
11744;DHT22;5929;51.906;7.674;2023-08-07T00:34:13;13.60;99.90
11744;DHT22;5929;51.906;7.674;2023-08-07T00:36:40;13.60;99.90
11744;DHT22;5929;51.906;7.674;2023-08-07T00:39:08;13.60;99.90
11744;DHT22;5929;51.906;7.674;2023-08-07T00:41:35;13.60;99.90
11744;DHT22;5929;51.906;7.674;2023-08-07T00:44:02;13.60;99.90
11744;DHT22;5929;51.906;7.674;2023-08-07T00:46:29;13.60;99.90
11744;DHT22;5929;51.906;7.674;2023-08-07T00:48:56;13.60;99.90
11744;DHT22;5929;51.906;7.674;2023-08-07T00:51:24;13.60;99.90
11744;DHT22;5929;51.906;7.674;2023-08-07T00:53:53;13.70;99.90
11744;DHT22;5929;51.906;7.674;2023-08-07T00:56:22;13.70;99.90
11744;DHT22;5929;51.906;7.674;2023-08-07T00:58:49;13.60;99.90
11744;DHT22;5929;51.906;7.674;2023-08-07T01:01:17;13.70;99.90
11744;DHT22;5929;51.906;7.674;2023-08-07T01:03:44;13.70;99.90
11744;DHT22;5929;51.906;7.674;2023-08-07T01:06:10;13.70;99.90
11744;DHT22;5929;51.906;7.674;2023-08-07T01:08:37;13.70;99.90
11744;DHT22;5929;51.906;7.674;2023-08-07T01:11:22;13.70;99.90
11744;DHT22;5929;51.906;7.674;2023-08-07T01:14:03;13.70;99.90
11744;DHT22;5929;51.906;7.674;2023-08-07T01:16:36;13.70;99.90
11744;DHT22;5929;51.906;7.674;2023-08-07T01:19:04;13.70;99.90
11744;DHT22;5929;51.906;7.674;2023-08-07T01:21:35;13.80;99.90
11744;DHT22;5929;51.906;7.674;2023-08-07T01:24:05;13.80;99.90
11744;DHT22;5929;51.906;7.674;2023-08-07T01:26:33;13.80;99.90
11744;DHT22;5929;51.906;7.674;2023-08-07T01:29:14;13.80;99.90
11744;DHT22;5929;51.906;7.674;2023-08-07T01:31:44;13.80;99.90
11744;DHT22;5929;51.906;7.674;2023-08-07T01:34:17;13.80;99.90
11744;DHT22;5929;51.906;7.674;2023-08-07T01:36:45;13.90;99.90
11744;DHT22;5929;51.906;7.674;2023-08-07T01:39:17;13.90;99.90
11744;DHT22;5929;51.906;7.674;2023-08-07T01:41:45;13.90;99.90
11744;DHT22;5929;51.906;7.674;2023-08-07T01:44:12;13.90;99.90
11744;DHT22;5929;51.906;7.674;2023-08-07T01:46:42;13.90;99.90
11744;DHT22;5929;51.906;7.674;2023-08-07T01:49:08;13.90;99.90
11744;DHT22;5929;51.906;7.674;2023-08-07T01:51:35;14.00;99.90
11744;DHT22;5929;51.906;7.674;2023-08-07T01:54:02;14.00;99.90
11744;DHT22;5929;51.906;7.674;2023-08-07T01:56:30;14.00;99.90
11744;DHT22;5929;51.906;7.674;2023-08-07T01:58:57;14.00;99.90
11744;DHT22;5929;51.906;7.674;2023-08-07T02:01:24;14.00;99.90
11744;DHT22;5929;51.906;7.674;2023-08-07T02:03:50;14.00;99.90
11744;DHT22;5929;51.906;7.674;2023-08-07T02:06:17;14.10;99.90
11744;DHT22;5929;51.906;7.674;2023-08-07T02:08:44;14.10;99.90
11744;DHT22;5929;51.906;7.674;2023-08-07T02:11:11;14.10;99.90
11744;DHT22;5929;51.906;7.674;2023-08-07T02:13:39;14.10;99.90
11744;DHT22;5929;51.906;7.674;2023-08-07T02:16:06;14.10;99.90
11744;DHT22;5929;51.906;7.674;2023-08-07T02:18:32;14.10;99.90
11744;DHT22;5929;51.906;7.674;2023-08-07T02:20:59;14.10;99.90
11744;DHT22;5929;51.906;7.674;2023-08-07T02:23:26;14.10;99.90
11744;DHT22;5929;51.906;7.674;2023-08-07T02:25:54;14.10;99.90
11744;DHT22;5929;51.906;7.674;2023-08-07T02:28:21;14.10;99.90
11744;DHT22;5929;51.906;7.674;2023-08-07T02:30:49;16.00;99.90
11744;DHT22;5929;51.906;7.674;2023-08-07T02:33:16;15.90;99.90
11744;DHT22;5929;51.906;7.674;2023-08-07T02:35:43;15.90;99.90
11744;DHT22;5929;51.906;7.674;2023-08-07T02:38:11;15.80;99.90
11744;DHT22;5929;51.906;7.674;2023-08-07T02:40:37;15.70;99.90
11744;DHT22;5929;51.906;7.674;2023-08-07T02:43:04;15.70;99.90
11744;DHT22;5929;51.906;7.674;2023-08-07T02:45:31;15.60;99.90
11744;DHT22;5929;51.906;7.674;2023-08-07T02:47:59;15.60;99.90
11744;DHT22;5929;51.906;7.674;2023-08-07T02:50:26;15.50;99.90
11744;DHT22;5929;51.906;7.674;2023-08-07T02:52:55;15.40;99.90
11744;DHT22;5929;51.906;7.674;2023-08-07T02:55:22;15.40;99.90
11744;DHT22;5929;51.906;7.674;2023-08-07T02:57:49;15.40;99.90
11744;DHT22;5929;51.906;7.674;2023-08-07T03:00:18;15.30;99.90
11744;DHT22;5929;51.906;7.674;2023-08-07T03:02:45;15.40;99.90
11744;DHT22;5929;51.906;7.674;2023-08-07T03:05:14;15.30;99.90
11744;DHT22;5929;51.906;7.674;2023-08-07T03:07:40;15.30;99.90
11744;DHT22;5929;51.906;7.674;2023-08-07T03:10:07;15.40;99.90
11744;DHT22;5929;51.906;7.674;2023-08-07T03:12:34;15.30;99.90
11744;DHT22;5929;51.906;7.674;2023-08-07T03:15:03;15.30;99.90
11744;DHT22;5929;51.906;7.674;2023-08-07T03:17:30;15.30;99.90
11744;DHT22;5929;51.906;7.674;2023-08-07T03:19:57;15.30;99.90
11744;DHT22;5929;51.906;7.674;2023-08-07T03:22:25;15.30;99.90
11744;DHT22;5929;51.906;7.674;2023-08-07T03:24:52;15.20;99.90
11744;DHT22;5929;51.906;7.674;2023-08-07T03:27:21;15.20;99.90
11744;DHT22;5929;51.906;7.674;2023-08-07T03:29:48;15.20;99.90
11744;DHT22;5929;51.906;7.674;2023-08-07T03:32:15;15.30;99.90
11744;DHT22;5929;51.906;7.674;2023-08-07T03:34:42;15.30;99.90
11744;DHT22;5929;51.906;7.674;2023-08-07T03:37:09;15.30;99.90
11744;DHT22;5929;51.906;7.674;2023-08-07T03:39:37;15.30;99.90
11744;DHT22;5929;51.906;7.674;2023-08-07T03:42:04;15.30;99.90
11744;DHT22;5929;51.906;7.674;2023-08-07T03:44:31;15.20;99.90
11744;DHT22;5929;51.906;7.674;2023-08-07T03:47:00;15.30;99.90
11744;DHT22;5929;51.906;7.674;2023-08-07T03:49:26;15.30;99.90
11744;DHT22;5929;51.906;7.674;2023-08-07T03:51:53;15.30;99.90
11744;DHT22;5929;51.906;7.674;2023-08-07T03:54:20;15.30;99.90
11744;DHT22;5929;51.906;7.674;2023-08-07T03:56:48;15.30;99.90
11744;DHT22;5929;51.906;7.674;2023-08-07T03:59:17;15.30;99.90
11744;DHT22;5929;51.906;7.674;2023-08-07T04:01:44;15.30;99.90
11744;DHT22;5929;51.906;7.674;2023-08-07T04:04:10;15.30;99.90
11744;DHT22;5929;51.906;7.674;2023-08-07T04:06:37;15.30;99.90
11744;DHT22;5929;51.906;7.674;2023-08-07T04:09:04;15.30;99.90
11744;DHT22;5929;51.906;7.674;2023-08-07T04:11:31;15.30;99.90
11744;DHT22;5929;51.906;7.674;2023-08-07T04:14:00;15.30;99.90
11744;DHT22;5929;51.906;7.674;2023-08-07T04:16:27;15.30;99.90
11744;DHT22;5929;51.906;7.674;2023-08-07T04:18:54;15.30;99.90
11744;DHT22;5929;51.906;7.674;2023-08-07T04:21:20;15.20;99.90
11744;DHT22;5929;51.906;7.674;2023-08-07T04:23:47;15.20;99.90
11744;DHT22;5929;51.906;7.674;2023-08-07T04:26:14;15.20;99.90
11744;DHT22;5929;51.906;7.674;2023-08-07T04:28:41;15.30;99.90
11744;DHT22;5929;51.906;7.674;2023-08-07T04:31:10;15.30;99.90
11744;DHT22;5929;51.906;7.674;2023-08-07T04:33:36;15.40;99.90
11744;DHT22;5929;51.906;7.674;2023-08-07T04:36:04;15.40;99.90
11744;DHT22;5929;51.906;7.674;2023-08-07T04:38:29;15.40;99.90
11744;DHT22;5929;51.906;7.674;2023-08-07T04:40:56;15.30;99.90
11744;DHT22;5929;51.906;7.674;2023-08-07T04:43:23;15.30;99.90
11744;DHT22;5929;51.906;7.674;2023-08-07T04:45:50;15.30;99.90
11744;DHT22;5929;51.906;7.674;2023-08-07T04:48:18;15.30;99.90
11744;DHT22;5929;51.906;7.674;2023-08-07T04:50:46;15.30;99.90
11744;DHT22;5929;51.906;7.674;2023-08-07T04:53:13;15.20;99.90
11744;DHT22;5929;51.906;7.674;2023-08-07T04:55:40;15.20;99.90
11744;DHT22;5929;51.906;7.674;2023-08-07T04:58:06;15.20;99.90
11744;DHT22;5929;51.906;7.674;2023-08-07T05:00:33;15.20;99.90
11744;DHT22;5929;51.906;7.674;2023-08-07T05:03:00;15.30;99.90
11744;DHT22;5929;51.906;7.674;2023-08-07T05:05:30;15.20;99.90
11744;DHT22;5929;51.906;7.674;2023-08-07T05:07:58;15.20;99.90
11744;DHT22;5929;51.906;7.674;2023-08-07T05:10:25;15.20;99.90
11744;DHT22;5929;51.906;7.674;2023-08-07T05:12:52;15.30;99.90
11744;DHT22;5929;51.906;7.674;2023-08-07T05:15:21;15.20;99.90
11744;DHT22;5929;51.906;7.674;2023-08-07T05:17:48;15.20;99.90
11744;DHT22;5929;51.906;7.674;2023-08-07T05:20:15;15.20;99.90
11744;DHT22;5929;51.906;7.674;2023-08-07T05:22:43;15.20;99.90
11744;DHT22;5929;51.906;7.674;2023-08-07T05:25:10;15.10;99.90
11744;DHT22;5929;51.906;7.674;2023-08-07T05:27:41;15.10;99.90
11744;DHT22;5929;51.906;7.674;2023-08-07T05:30:08;15.10;99.90
11744;DHT22;5929;51.906;7.674;2023-08-07T05:32:37;15.10;99.90
11744;DHT22;5929;51.906;7.674;2023-08-07T05:35:05;15.10;99.90
11744;DHT22;5929;51.906;7.674;2023-08-07T05:37:32;15.10;99.90
11744;DHT22;5929;51.906;7.674;2023-08-07T05:40:01;15.20;99.90
11744;DHT22;5929;51.906;7.674;2023-08-07T05:42:28;15.20;99.90
11744;DHT22;5929;51.906;7.674;2023-08-07T05:44:55;15.10;99.90
11744;DHT22;5929;51.906;7.674;2023-08-07T05:47:21;15.10;99.90
11744;DHT22;5929;51.906;7.674;2023-08-07T05:49:48;15.10;99.90
11744;DHT22;5929;51.906;7.674;2023-08-07T05:52:15;15.10;99.90
11744;DHT22;5929;51.906;7.674;2023-08-07T05:54:42;15.10;99.90
11744;DHT22;5929;51.906;7.674;2023-08-07T05:57:10;15.10;99.90
11744;DHT22;5929;51.906;7.674;2023-08-07T05:59:37;15.10;99.90
11744;DHT22;5929;51.906;7.674;2023-08-07T06:02:06;15.20;99.90
11744;DHT22;5929;51.906;7.674;2023-08-07T06:04:33;15.20;99.90
11744;DHT22;5929;51.906;7.674;2023-08-07T06:07:00;15.30;99.90
11744;DHT22;5929;51.906;7.674;2023-08-07T06:09:27;15.30;99.90
11744;DHT22;5929;51.906;7.674;2023-08-07T06:11:54;15.40;99.90
11744;DHT22;5929;51.906;7.674;2023-08-07T06:14:22;15.40;99.90
11744;DHT22;5929;51.906;7.674;2023-08-07T06:16:50;15.40;99.90
11744;DHT22;5929;51.906;7.674;2023-08-07T06:19:17;15.40;99.90
11744;DHT22;5929;51.906;7.674;2023-08-07T06:21:45;15.30;99.90
11744;DHT22;5929;51.906;7.674;2023-08-07T06:24:12;15.30;99.90
11744;DHT22;5929;51.906;7.674;2023-08-07T06:26:39;15.30;99.90
11744;DHT22;5929;51.906;7.674;2023-08-07T06:29:06;15.40;99.90
11744;DHT22;5929;51.906;7.674;2023-08-07T06:31:34;15.50;99.90
11744;DHT22;5929;51.906;7.674;2023-08-07T06:34:03;15.40;99.90
11744;DHT22;5929;51.906;7.674;2023-08-07T06:36:30;15.50;99.90
11744;DHT22;5929;51.906;7.674;2023-08-07T06:38:57;15.40;99.90
11744;DHT22;5929;51.906;7.674;2023-08-07T06:41:23;15.50;99.90
11744;DHT22;5929;51.906;7.674;2023-08-07T06:43:53;15.50;99.90
11744;DHT22;5929;51.906;7.674;2023-08-07T06:46:19;15.50;99.90
11744;DHT22;5929;51.906;7.674;2023-08-07T06:48:51;15.50;99.90
11744;DHT22;5929;51.906;7.674;2023-08-07T06:51:18;15.60;99.90
11744;DHT22;5929;51.906;7.674;2023-08-07T06:53:44;15.60;99.90
11744;DHT22;5929;51.906;7.674;2023-08-07T06:56:11;15.60;99.90
11744;DHT22;5929;51.906;7.674;2023-08-07T06:58:38;15.60;99.90
11744;DHT22;5929;51.906;7.674;2023-08-07T07:01:05;15.80;99.90
11744;DHT22;5929;51.906;7.674;2023-08-07T07:03:32;16.00;99.90
11744;DHT22;5929;51.906;7.674;2023-08-07T07:06:03;16.10;99.90
11744;DHT22;5929;51.906;7.674;2023-08-07T07:08:29;16.20;99.90
11744;DHT22;5929;51.906;7.674;2023-08-07T07:10:56;15.90;99.90
11744;DHT22;5929;51.906;7.674;2023-08-07T07:13:24;16.00;99.90
11744;DHT22;5929;51.906;7.674;2023-08-07T07:15:53;15.80;99.90
11744;DHT22;5929;51.906;7.674;2023-08-07T07:18:20;16.00;99.90
11744;DHT22;5929;51.906;7.674;2023-08-07T07:20:47;16.00;99.90
11744;DHT22;5929;51.906;7.674;2023-08-07T07:23:16;16.00;99.90
11744;DHT22;5929;51.906;7.674;2023-08-07T07:25:42;16.00;99.90
11744;DHT22;5929;51.906;7.674;2023-08-07T07:28:09;16.10;99.90
11744;DHT22;5929;51.906;7.674;2023-08-07T07:30:39;16.10;99.90
11744;DHT22;5929;51.906;7.674;2023-08-07T07:33:05;16.20;99.90
11744;DHT22;5929;51.906;7.674;2023-08-07T07:35:33;16.30;99.90
11744;DHT22;5929;51.906;7.674;2023-08-07T07:38:03;16.40;99.90
11744;DHT22;5929;51.906;7.674;2023-08-07T07:40:31;16.50;99.90
11744;DHT22;5929;51.906;7.674;2023-08-07T07:42:58;16.60;99.90
11744;DHT22;5929;51.906;7.674;2023-08-07T07:45:25;16.60;99.90
11744;DHT22;5929;51.906;7.674;2023-08-07T07:47:52;16.60;99.90
11744;DHT22;5929;51.906;7.674;2023-08-07T07:50:18;16.70;99.90
11744;DHT22;5929;51.906;7.674;2023-08-07T07:52:45;16.70;99.90
11744;DHT22;5929;51.906;7.674;2023-08-07T07:55:14;16.70;99.90
11744;DHT22;5929;51.906;7.674;2023-08-07T07:57:43;16.70;99.90
11744;DHT22;5929;51.906;7.674;2023-08-07T08:00:11;16.30;99.90
11744;DHT22;5929;51.906;7.674;2023-08-07T08:02:39;16.20;99.90
11744;DHT22;5929;51.906;7.674;2023-08-07T08:05:07;16.20;99.90
11744;DHT22;5929;51.906;7.674;2023-08-07T08:07:36;16.20;99.90
11744;DHT22;5929;51.906;7.674;2023-08-07T08:10:06;16.10;99.90
11744;DHT22;5929;51.906;7.674;2023-08-07T08:12:32;16.20;99.90
11744;DHT22;5929;51.906;7.674;2023-08-07T08:15:01;16.20;99.90
11744;DHT22;5929;51.906;7.674;2023-08-07T08:17:30;16.10;99.90
11744;DHT22;5929;51.906;7.674;2023-08-07T08:19:57;16.30;99.90
11744;DHT22;5929;51.906;7.674;2023-08-07T08:22:24;16.20;99.90
11744;DHT22;5929;51.906;7.674;2023-08-07T08:24:51;16.10;99.90
11744;DHT22;5929;51.906;7.674;2023-08-07T08:27:18;15.90;99.90
11744;DHT22;5929;51.906;7.674;2023-08-07T08:29:47;16.00;99.90
11744;DHT22;5929;51.906;7.674;2023-08-07T08:32:15;16.10;99.90
11744;DHT22;5929;51.906;7.674;2023-08-07T08:34:41;16.30;99.90
11744;DHT22;5929;51.906;7.674;2023-08-07T08:37:08;16.50;99.90
11744;DHT22;5929;51.906;7.674;2023-08-07T08:39:36;16.50;99.90
11744;DHT22;5929;51.906;7.674;2023-08-07T08:42:04;16.80;99.90
11744;DHT22;5929;51.906;7.674;2023-08-07T08:44:35;17.10;99.90
11744;DHT22;5929;51.906;7.674;2023-08-07T08:47:03;17.20;99.90
11744;DHT22;5929;51.906;7.674;2023-08-07T08:49:35;16.60;99.90
11744;DHT22;5929;51.906;7.674;2023-08-07T08:52:02;16.70;99.90
11744;DHT22;5929;51.906;7.674;2023-08-07T08:54:30;16.80;99.90
11744;DHT22;5929;51.906;7.674;2023-08-07T08:56:57;16.70;99.90
11744;DHT22;5929;51.906;7.674;2023-08-07T08:59:27;16.60;99.90
11744;DHT22;5929;51.906;7.674;2023-08-07T09:01:57;16.40;99.90
11744;DHT22;5929;51.906;7.674;2023-08-07T09:04:23;16.10;99.90
11744;DHT22;5929;51.906;7.674;2023-08-07T09:06:52;16.00;99.90
11744;DHT22;5929;51.906;7.674;2023-08-07T09:09:20;16.10;99.90
11744;DHT22;5929;51.906;7.674;2023-08-07T09:11:47;16.40;99.90
11744;DHT22;5929;51.906;7.674;2023-08-07T09:14:16;16.40;99.90
11744;DHT22;5929;51.906;7.674;2023-08-07T09:16:44;16.40;99.90
11744;DHT22;5929;51.906;7.674;2023-08-07T09:19:12;16.70;99.90
11744;DHT22;5929;51.906;7.674;2023-08-07T09:21:39;17.10;99.90
11744;DHT22;5929;51.906;7.674;2023-08-07T09:24:07;16.80;99.90
11744;DHT22;5929;51.906;7.674;2023-08-07T09:26:35;16.70;99.90
11744;DHT22;5929;51.906;7.674;2023-08-07T09:29:02;16.60;99.90
11744;DHT22;5929;51.906;7.674;2023-08-07T09:31:29;16.60;99.90
11744;DHT22;5929;51.906;7.674;2023-08-07T09:34:01;16.60;99.90
11744;DHT22;5929;51.906;7.674;2023-08-07T09:36:30;16.50;99.90
11744;DHT22;5929;51.906;7.674;2023-08-07T09:38:58;16.50;99.90
11744;DHT22;5929;51.906;7.674;2023-08-07T09:41:28;16.40;99.90
11744;DHT22;5929;51.906;7.674;2023-08-07T09:43:56;16.20;99.90
11744;DHT22;5929;51.906;7.674;2023-08-07T09:46:23;16.60;99.90
11744;DHT22;5929;51.906;7.674;2023-08-07T09:48:51;16.60;99.90
11744;DHT22;5929;51.906;7.674;2023-08-07T09:51:18;16.30;99.90
11744;DHT22;5929;51.906;7.674;2023-08-07T09:53:47;16.00;99.90
11744;DHT22;5929;51.906;7.674;2023-08-07T09:56:14;16.10;99.90
11744;DHT22;5929;51.906;7.674;2023-08-07T09:58:47;15.90;99.90
11744;DHT22;5929;51.906;7.674;2023-08-07T10:01:16;15.80;99.90
11744;DHT22;5929;51.906;7.674;2023-08-07T10:03:46;15.80;99.90
11744;DHT22;5929;51.906;7.674;2023-08-07T10:06:14;15.80;99.90
11744;DHT22;5929;51.906;7.674;2023-08-07T10:08:41;15.70;99.90
11744;DHT22;5929;51.906;7.674;2023-08-07T10:11:09;16.10;99.90
11744;DHT22;5929;51.906;7.674;2023-08-07T10:13:37;16.60;99.90
11744;DHT22;5929;51.906;7.674;2023-08-07T10:16:05;16.80;99.90
11744;DHT22;5929;51.906;7.674;2023-08-07T10:18:32;16.80;99.90
11744;DHT22;5929;51.906;7.674;2023-08-07T10:21:01;16.70;99.90
11744;DHT22;5929;51.906;7.674;2023-08-07T10:23:28;16.70;99.90
11744;DHT22;5929;51.906;7.674;2023-08-07T10:25:56;16.70;99.90
11744;DHT22;5929;51.906;7.674;2023-08-07T10:28:24;16.60;99.90
11744;DHT22;5929;51.906;7.674;2023-08-07T10:30:52;16.60;99.90
11744;DHT22;5929;51.906;7.674;2023-08-07T10:33:21;16.90;99.90
11744;DHT22;5929;51.906;7.674;2023-08-07T10:35:52;16.70;99.90
11744;DHT22;5929;51.906;7.674;2023-08-07T10:38:20;16.70;99.90
11744;DHT22;5929;51.906;7.674;2023-08-07T10:41:09;17.20;99.90
11744;DHT22;5929;51.906;7.674;2023-08-07T10:43:37;17.50;99.90
11744;DHT22;5929;51.906;7.674;2023-08-07T10:46:05;17.20;99.90
11744;DHT22;5929;51.906;7.674;2023-08-07T10:48:39;17.10;99.90
11744;DHT22;5929;51.906;7.674;2023-08-07T10:51:07;16.90;99.90
11744;DHT22;5929;51.906;7.674;2023-08-07T10:53:36;16.80;99.90
11744;DHT22;5929;51.906;7.674;2023-08-07T10:56:05;16.80;99.90
11744;DHT22;5929;51.906;7.674;2023-08-07T10:58:36;16.70;99.90
11744;DHT22;5929;51.906;7.674;2023-08-07T11:01:20;16.40;99.90
11744;DHT22;5929;51.906;7.674;2023-08-07T11:03:51;16.20;99.90
11744;DHT22;5929;51.906;7.674;2023-08-07T11:06:21;16.30;99.90
11744;DHT22;5929;51.906;7.674;2023-08-07T11:08:49;16.60;99.90
11744;DHT22;5929;51.906;7.674;2023-08-07T11:11:16;17.00;99.90
11744;DHT22;5929;51.906;7.674;2023-08-07T11:13:46;17.20;99.90
11744;DHT22;5929;51.906;7.674;2023-08-07T11:16:13;18.10;99.90
11744;DHT22;5929;51.906;7.674;2023-08-07T11:18:40;19.50;99.90
11744;DHT22;5929;51.906;7.674;2023-08-07T11:21:10;19.70;99.90
11744;DHT22;5929;51.906;7.674;2023-08-07T11:23:37;19.60;99.90
11744;DHT22;5929;51.906;7.674;2023-08-07T11:26:04;18.70;99.90
11744;DHT22;5929;51.906;7.674;2023-08-07T11:28:32;17.90;99.90
11744;DHT22;5929;51.906;7.674;2023-08-07T11:30:59;17.80;99.90
11744;DHT22;5929;51.906;7.674;2023-08-07T11:33:27;19.00;99.90
11744;DHT22;5929;51.906;7.674;2023-08-07T11:35:54;20.20;99.90
11744;DHT22;5929;51.906;7.674;2023-08-07T11:38:34;20.90;99.90
11744;DHT22;5929;51.906;7.674;2023-08-07T11:41:01;21.10;99.90
11744;DHT22;5929;51.906;7.674;2023-08-07T11:43:29;19.50;99.90
11744;DHT22;5929;51.906;7.674;2023-08-07T11:45:57;18.40;99.90
11744;DHT22;5929;51.906;7.674;2023-08-07T11:48:25;17.80;99.90
11744;DHT22;5929;51.906;7.674;2023-08-07T11:50:52;18.00;99.90
11744;DHT22;5929;51.906;7.674;2023-08-07T11:53:20;19.50;99.90
11744;DHT22;5929;51.906;7.674;2023-08-07T11:55:52;21.20;99.90
11744;DHT22;5929;51.906;7.674;2023-08-07T11:58:20;21.60;99.90
11744;DHT22;5929;51.906;7.674;2023-08-07T12:00:47;21.50;99.90
11744;DHT22;5929;51.906;7.674;2023-08-07T12:03:24;20.70;99.90
11744;DHT22;5929;51.906;7.674;2023-08-07T12:05:52;19.40;99.90
11744;DHT22;5929;51.906;7.674;2023-08-07T12:08:19;18.80;99.90
11744;DHT22;5929;51.906;7.674;2023-08-07T12:10:50;18.50;99.90
11744;DHT22;5929;51.906;7.674;2023-08-07T12:13:20;18.40;99.90
11744;DHT22;5929;51.906;7.674;2023-08-07T12:15:51;18.20;99.90
11744;DHT22;5929;51.906;7.674;2023-08-07T12:18:19;18.40;99.90
11744;DHT22;5929;51.906;7.674;2023-08-07T12:20:49;18.10;99.90
11744;DHT22;5929;51.906;7.674;2023-08-07T12:23:17;17.70;99.90
11744;DHT22;5929;51.906;7.674;2023-08-07T12:25:44;17.60;99.90
11744;DHT22;5929;51.906;7.674;2023-08-07T12:28:12;17.70;99.90
11744;DHT22;5929;51.906;7.674;2023-08-07T12:30:39;18.10;99.90
11744;DHT22;5929;51.906;7.674;2023-08-07T12:33:06;18.80;99.90
11744;DHT22;5929;51.906;7.674;2023-08-07T12:35:34;19.80;99.90
11744;DHT22;5929;51.906;7.674;2023-08-07T12:38:03;20.20;99.90
11744;DHT22;5929;51.906;7.674;2023-08-07T12:40:30;19.10;99.90
11744;DHT22;5929;51.906;7.674;2023-08-07T12:42:58;18.40;99.90
11744;DHT22;5929;51.906;7.674;2023-08-07T12:45:26;18.00;99.90
11744;DHT22;5929;51.906;7.674;2023-08-07T12:47:53;17.80;99.90
11744;DHT22;5929;51.906;7.674;2023-08-07T12:50:20;17.70;99.90
11744;DHT22;5929;51.906;7.674;2023-08-07T12:52:47;18.90;99.90
11744;DHT22;5929;51.906;7.674;2023-08-07T12:55:14;18.80;99.90
11744;DHT22;5929;51.906;7.674;2023-08-07T12:57:41;19.80;99.90
11744;DHT22;5929;51.906;7.674;2023-08-07T13:00:09;20.80;99.90
11744;DHT22;5929;51.906;7.674;2023-08-07T13:02:42;20.20;99.90
11744;DHT22;5929;51.906;7.674;2023-08-07T13:05:09;21.30;99.90
11744;DHT22;5929;51.906;7.674;2023-08-07T13:07:38;20.20;99.90
11744;DHT22;5929;51.906;7.674;2023-08-07T13:10:07;20.20;99.90
11744;DHT22;5929;51.906;7.674;2023-08-07T13:12:35;19.70;99.90
11744;DHT22;5929;51.906;7.674;2023-08-07T13:15:02;19.30;99.90
11744;DHT22;5929;51.906;7.674;2023-08-07T13:17:30;19.30;99.90
11744;DHT22;5929;51.906;7.674;2023-08-07T13:19:58;21.50;99.90
11744;DHT22;5929;51.906;7.674;2023-08-07T13:22:25;20.90;99.90
11744;DHT22;5929;51.906;7.674;2023-08-07T13:24:52;22.60;99.90
11744;DHT22;5929;51.906;7.674;2023-08-07T13:27:19;22.80;99.90
11744;DHT22;5929;51.906;7.674;2023-08-07T13:29:48;22.30;99.90
11744;DHT22;5929;51.906;7.674;2023-08-07T13:32:15;23.70;99.90
11744;DHT22;5929;51.906;7.674;2023-08-07T13:34:44;23.20;99.90
11744;DHT22;5929;51.906;7.674;2023-08-07T13:37:13;23.50;99.90
11744;DHT22;5929;51.906;7.674;2023-08-07T13:39:40;21.90;99.90
11744;DHT22;5929;51.906;7.674;2023-08-07T13:42:07;21.00;99.90
11744;DHT22;5929;51.906;7.674;2023-08-07T13:44:35;19.90;99.90
11744;DHT22;5929;51.906;7.674;2023-08-07T13:47:03;21.40;99.90
11744;DHT22;5929;51.906;7.674;2023-08-07T13:49:30;21.90;99.90
11744;DHT22;5929;51.906;7.674;2023-08-07T13:51:56;23.20;99.90
11744;DHT22;5929;51.906;7.674;2023-08-07T13:54:25;21.90;99.90
11744;DHT22;5929;51.906;7.674;2023-08-07T13:56:51;20.90;99.90
11744;DHT22;5929;51.906;7.674;2023-08-07T13:59:18;20.30;99.90
11744;DHT22;5929;51.906;7.674;2023-08-07T14:01:45;20.30;99.90
11744;DHT22;5929;51.906;7.674;2023-08-07T14:04:12;20.10;99.90
11744;DHT22;5929;51.906;7.674;2023-08-07T14:06:39;20.00;99.90
11744;DHT22;5929;51.906;7.674;2023-08-07T14:09:07;20.50;99.90
11744;DHT22;5929;51.906;7.674;2023-08-07T14:11:36;20.90;99.90
11744;DHT22;5929;51.906;7.674;2023-08-07T14:14:03;20.40;99.90
11744;DHT22;5929;51.906;7.674;2023-08-07T14:16:30;22.30;99.90
11744;DHT22;5929;51.906;7.674;2023-08-07T14:18:57;21.00;99.90
11744;DHT22;5929;51.906;7.674;2023-08-07T14:21:24;20.80;99.90
11744;DHT22;5929;51.906;7.674;2023-08-07T14:23:51;20.90;99.90
11744;DHT22;5929;51.906;7.674;2023-08-07T14:26:17;19.50;99.90
11744;DHT22;5929;51.906;7.674;2023-08-07T14:28:47;19.00;99.90
11744;DHT22;5929;51.906;7.674;2023-08-07T14:31:14;20.20;99.90
11744;DHT22;5929;51.906;7.674;2023-08-07T14:33:41;19.60;99.90
11744;DHT22;5929;51.906;7.674;2023-08-07T14:36:07;19.20;99.90
11744;DHT22;5929;51.906;7.674;2023-08-07T14:38:34;18.90;99.90
11744;DHT22;5929;51.906;7.674;2023-08-07T14:41:01;18.90;99.90
11744;DHT22;5929;51.906;7.674;2023-08-07T14:43:29;19.10;99.90
11744;DHT22;5929;51.906;7.674;2023-08-07T14:45:58;19.90;99.90
11744;DHT22;5929;51.906;7.674;2023-08-07T14:48:24;20.50;99.90
11744;DHT22;5929;51.906;7.674;2023-08-07T14:50:51;21.00;99.90
11744;DHT22;5929;51.906;7.674;2023-08-07T14:53:18;21.00;99.90
11744;DHT22;5929;51.906;7.674;2023-08-07T14:55:45;20.30;99.90
11744;DHT22;5929;51.906;7.674;2023-08-07T14:58:12;19.70;99.90
11744;DHT22;5929;51.906;7.674;2023-08-07T15:00:39;20.10;99.90
11744;DHT22;5929;51.906;7.674;2023-08-07T15:03:07;20.00;99.90
11744;DHT22;5929;51.906;7.674;2023-08-07T15:05:34;20.80;99.90
11744;DHT22;5929;51.906;7.674;2023-08-07T15:08:01;21.40;99.90
11744;DHT22;5929;51.906;7.674;2023-08-07T15:10:28;22.10;99.90
11744;DHT22;5929;51.906;7.674;2023-08-07T15:12:57;23.00;99.90
11744;DHT22;5929;51.906;7.674;2023-08-07T15:15:24;23.40;99.90
11744;DHT22;5929;51.906;7.674;2023-08-07T15:17:51;21.90;99.90
11744;DHT22;5929;51.906;7.674;2023-08-07T15:20:20;20.80;99.90
11744;DHT22;5929;51.906;7.674;2023-08-07T15:22:47;22.00;99.90
11744;DHT22;5929;51.906;7.674;2023-08-07T15:25:14;21.40;99.90
11744;DHT22;5929;51.906;7.674;2023-08-07T15:27:41;20.50;99.90
11744;DHT22;5929;51.906;7.674;2023-08-07T15:30:08;20.90;99.90
11744;DHT22;5929;51.906;7.674;2023-08-07T15:32:36;21.10;99.90
11744;DHT22;5929;51.906;7.674;2023-08-07T15:35:04;20.40;99.90
11744;DHT22;5929;51.906;7.674;2023-08-07T15:37:32;20.00;99.90
11744;DHT22;5929;51.906;7.674;2023-08-07T15:39:59;20.10;99.90
11744;DHT22;5929;51.906;7.674;2023-08-07T15:42:26;19.20;99.90
11744;DHT22;5929;51.906;7.674;2023-08-07T15:44:55;18.70;99.90
11744;DHT22;5929;51.906;7.674;2023-08-07T15:47:25;19.00;99.90
11744;DHT22;5929;51.906;7.674;2023-08-07T15:49:52;19.30;99.90